Worthington, MN (56187)

11:57 PM CST on December 07, 2016 (GMT -0600)
601 Lake Ave | | Change Station

Elev 1585 ft 43.62 °N, 95.61 °W | Updated 53 seconds ago

Clear
Clear
6.8 °F
Feels Like -3 °F
N
5.0
Wind Variable Wind from West

Today
High -- | Low -- °F
--% Chance of Precip.
Yesterday
High -- | Low -- °F
Precip. -- in
Pressure 30.39 in
Visibility 10.0 miles
Clouds Clear
Windchill -3 °F
Dew Point 1 °F
Humidity 80%
Rainfall 0.00 in
Snow Depth Not available.
7:42 AM 4:45 PM
First Quarter, 60% visible
METAR KOTG 080456Z AUTO 29021G26KT 10SM CLR M14/M17 A3028 RMK AO2 PK WND 29028/0419 SLP291 T11391167 FZRANO
Pressure 30.39 in
Visibility 10.0 miles
Clouds Clear
Windchill -3 °F
Dew Point 1 °F
Humidity 80%
Rainfall 0.00 in
Snow Depth Not available.
7:42 AM 4:45 PM
First Quarter, 60% visible
METAR KOTG 080456Z AUTO 29021G26KT 10SM CLR M14/M17 A3028 RMK AO2 PK WND 29028/0419 SLP291 T11391167 FZRANO

10-Day Weather Forecast

Almanac

Astronomy

Dec. 07, 2016 Rise Set
Actual Time
Civil Twilight
Nautical Twilight
Astronomical Twilight
Moon
Length of Visible Light
Length of Day
Tomorrow will be .
, % of the Moon is Illuminated

Today's Extremes

State Highs State Lows

Community

WunderPhotos

Upload Photos

1,956,259 photos uploaded!

WunderBlog® & News

Nearby

Air Quality

  Air Quality AQ Index Pollutant
Not available.

Snow Depth

Station Depth Elevation

Earthquake Activity

City Distance Mag. Time & Date
Minimum magnitude displayed is 2.5.

Coastal Water Temperatures

Place Temperature

Stations

Nearby Weather Stations

Station Location Temp. Windchill Dew Point Humidity Wind Precip. Elev Updated Type
                   

Watches & Warnings

There are currently no watches in effect.